createdAt,value
2017-07-26T00:01:46.704Z,27.10
2017-07-26T00:04:17.820Z,27.20
2017-07-26T00:06:48.682Z,27.30
2017-07-26T00:09:19.673Z,27.40
2017-07-26T00:11:50.557Z,27.40
2017-07-26T00:14:21.448Z,27.50
2017-07-26T00:16:52.357Z,27.60
2017-07-26T00:19:23.168Z,27.60
2017-07-26T00:21:54.219Z,27.70
2017-07-26T00:24:25.249Z,27.80
2017-07-26T00:26:56.205Z,27.80
2017-07-26T00:29:27.142Z,27.80
2017-07-26T00:31:58.057Z,27.90
2017-07-26T00:34:29.015Z,27.90
2017-07-26T00:37:00.086Z,27.70
2017-07-26T00:39:31.039Z,27.60
2017-07-26T00:42:04.320Z,27.70
2017-07-26T00:44:37.087Z,27.70
2017-07-26T00:47:08.576Z,27.90
2017-07-26T00:49:39.549Z,28.00
2017-07-26T00:52:10.474Z,28.20
2017-07-26T00:54:41.339Z,28.30
2017-07-26T00:57:12.430Z,28.50
2017-07-26T00:59:43.321Z,28.60
2017-07-26T01:02:14.450Z,28.60
2017-07-26T01:04:45.494Z,28.60
2017-07-26T01:07:16.566Z,28.70
2017-07-26T01:09:47.498Z,28.80
2017-07-26T01:12:18.447Z,28.90
2017-07-26T01:14:49.384Z,28.90
2017-07-26T01:17:20.550Z,28.90
2017-07-26T01:19:51.541Z,29.00
2017-07-26T01:22:22.597Z,29.00
2017-07-26T01:24:53.533Z,29.10
2017-07-26T01:27:24.657Z,29.20
2017-07-26T01:29:55.607Z,29.40
2017-07-26T01:32:26.479Z,29.60
2017-07-26T01:34:57.511Z,29.80
2017-07-26T01:37:28.577Z,29.90
2017-07-26T01:39:59.689Z,30.10
2017-07-26T01:42:31.260Z,30.30
2017-07-26T01:45:06.010Z,30.60
2017-07-26T01:47:41.414Z,30.70
2017-07-26T01:50:12.474Z,30.80
2017-07-26T01:52:43.414Z,30.80
2017-07-26T01:55:14.266Z,30.90
2017-07-26T01:57:45.056Z,31.00
2017-07-26T02:00:15.846Z,31.20
2017-07-26T02:02:46.789Z,31.30
2017-07-26T02:05:17.967Z,31.50
2017-07-26T02:07:49.687Z,31.60
2017-07-26T02:10:20.550Z,31.60
2017-07-26T02:12:52.674Z,31.70
2017-07-26T02:15:26.496Z,31.60
2017-07-26T02:17:58.445Z,31.70
2017-07-26T02:20:31.866Z,31.70
2017-07-26T02:23:03.118Z,31.70
2017-07-26T02:25:33.998Z,31.50
2017-07-26T02:28:05.093Z,31.50
2017-07-26T02:30:35.892Z,31.60
2017-07-26T02:33:06.746Z,31.60
2017-07-26T02:35:37.507Z,31.50
2017-07-26T02:38:08.415Z,31.40
2017-07-26T02:40:39.580Z,31.40
2017-07-26T02:43:15.636Z,31.60
2017-07-26T02:45:48.685Z,31.90
2017-07-26T02:48:23.675Z,31.80
2017-07-26T02:50:56.189Z,32.00
2017-07-26T02:53:31.479Z,32.40
2017-07-26T02:56:06.381Z,32.40
2017-07-26T02:58:38.116Z,32.80
2017-07-26T03:01:12.298Z,33.40
2017-07-26T03:03:43.134Z,33.40
2017-07-26T03:06:14.003Z,33.70
2017-07-26T03:08:44.807Z,33.80
2017-07-26T03:11:15.856Z,33.90
2017-07-26T03:13:46.796Z,34.00
2017-07-26T03:16:17.860Z,34.20
2017-07-26T03:18:48.978Z,34.40
2017-07-26T03:21:20.012Z,34.40
2017-07-26T03:23:50.847Z,34.50
2017-07-26T03:26:21.890Z,34.60
2017-07-26T03:28:52.790Z,34.70
2017-07-26T03:31:24.599Z,34.90
2017-07-26T03:33:55.516Z,34.80
2017-07-26T03:36:26.601Z,35.00
2017-07-26T03:38:57.574Z,35.00
2017-07-26T03:41:29.313Z,35.30
2017-07-26T03:44:00.225Z,35.30
2017-07-26T03:46:30.949Z,35.50
2017-07-26T03:49:02.140Z,35.50
2017-07-26T03:51:33.057Z,35.50
2017-07-26T03:54:03.970Z,35.40
2017-07-26T03:56:34.826Z,35.50
2017-07-26T03:59:05.877Z,35.80
2017-07-26T04:07:03.886Z,35.80
2017-07-26T04:09:34.165Z,35.80
2017-07-26T04:12:04.700Z,35.60
2017-07-26T04:14:34.873Z,35.40
2017-07-26T04:17:05.330Z,34.90
2017-07-26T04:19:36.445Z,34.20
2017-07-26T04:22:06.863Z,34.10
2017-07-26T04:24:37.289Z,33.80
2017-07-26T04:27:07.690Z,33.60
2017-07-26T04:29:38.115Z,33.50
2017-07-26T04:32:08.684Z,33.40
2017-07-26T04:34:39.111Z,33.60
2017-07-26T04:37:09.394Z,34.00
2017-07-26T04:39:39.811Z,34.20
2017-07-26T04:42:10.229Z,34.20
2017-07-26T04:44:40.832Z,34.10
2017-07-26T04:47:11.857Z,33.70
2017-07-26T04:49:42.749Z,33.70
2017-07-26T04:52:17.125Z,33.10
2017-07-26T04:54:49.228Z,33.10
2017-07-26T04:57:20.439Z,32.50
2017-07-26T04:59:51.235Z,32.50
2017-07-26T05:02:21.777Z,32.30
2017-07-26T05:04:52.189Z,32.30
2017-07-26T05:07:22.632Z,32.70
2017-07-26T05:09:52.858Z,32.70
2017-07-26T05:12:23.408Z,32.70
2017-07-26T05:14:53.957Z,32.50
2017-07-26T05:17:29.431Z,32.80
2017-07-26T05:20:03.332Z,33.80
2017-07-26T05:22:35.313Z,33.70
2017-07-26T05:25:07.127Z,34.40
2017-07-26T05:27:41.289Z,34.40
2017-07-26T05:30:51.985Z,35.20
2017-07-26T05:33:22.950Z,35.20
2017-07-26T05:35:53.926Z,35.60
2017-07-26T05:38:25.150Z,35.90
2017-07-26T05:40:56.120Z,36.10
2017-07-26T05:43:33.607Z,36.10
2017-07-26T05:46:10.626Z,36.20
2017-07-26T05:48:47.255Z,36.40
2017-07-26T05:51:23.296Z,36.40
2017-07-26T05:54:01.698Z,36.40
2017-07-26T05:56:32.738Z,36.70
2017-07-26T05:59:04.024Z,36.80
2017-07-26T06:01:35.335Z,36.70
2017-07-26T06:04:06.238Z,36.80
2017-07-26T06:06:37.999Z,36.80
2017-07-26T06:09:09.914Z,37.00
2017-07-26T06:11:40.841Z,37.00
2017-07-26T06:14:11.880Z,37.10
2017-07-26T06:16:42.839Z,37.00
2017-07-26T06:19:13.976Z,36.90
2017-07-26T06:21:44.970Z,37.10
2017-07-26T06:24:16.996Z,37.10
2017-07-26T06:26:48.057Z,37.10
2017-07-26T06:29:19.429Z,37.20
2017-07-26T06:31:57.776Z,37.40
2017-07-26T06:34:34.638Z,37.40
2017-07-26T06:37:12.227Z,37.40
2017-07-26T06:39:47.435Z,37.40
2017-07-26T06:42:18.545Z,37.30
2017-07-26T06:44:49.817Z,37.40
2017-07-26T06:47:20.798Z,37.70
2017-07-26T06:49:51.814Z,37.70
2017-07-26T06:52:23.012Z,37.50
2017-07-26T06:54:54.214Z,37.10
2017-07-26T06:57:25.294Z,36.80
2017-07-26T06:59:57.318Z,36.80
2017-07-26T07:02:28.205Z,36.70
2017-07-26T07:04:59.118Z,36.90
2017-07-26T07:07:31.431Z,36.90
2017-07-26T07:10:02.713Z,36.90
2017-07-26T07:12:35.314Z,36.90
2017-07-26T07:15:10.885Z,36.80
2017-07-26T07:17:47.672Z,36.80
2017-07-26T07:20:23.458Z,36.70
2017-07-26T07:22:57.285Z,36.80
2017-07-26T07:25:36.267Z,36.80
2017-07-26T07:28:09.582Z,37.00
2017-07-26T07:30:40.533Z,37.00
2017-07-26T07:33:11.569Z,36.80
2017-07-26T07:35:47.282Z,36.70
2017-07-26T07:38:19.404Z,36.60
2017-07-26T07:40:50.619Z,36.50
2017-07-26T07:43:28.006Z,36.50
2017-07-26T07:46:04.615Z,36.80
2017-07-26T07:48:40.710Z,36.60
2017-07-26T07:51:17.345Z,36.70
2017-07-26T07:53:48.352Z,36.60
2017-07-26T07:56:20.365Z,36.80
2017-07-26T07:58:52.415Z,36.80
2017-07-26T08:01:23.615Z,36.90
2017-07-26T08:03:58.668Z,36.90
2017-07-26T08:06:29.614Z,36.70
2017-07-26T08:09:00.738Z,36.40
2017-07-26T08:11:32.744Z,36.20
2017-07-26T08:14:03.641Z,36.20
2017-07-26T08:16:35.262Z,35.90
2017-07-26T08:19:06.559Z,35.90
2017-07-26T08:21:37.626Z,35.80
2017-07-26T08:24:14.297Z,35.70
2017-07-26T08:26:51.963Z,35.50
2017-07-26T08:29:35.337Z,35.80
2017-07-26T08:32:11.471Z,35.90
2017-07-26T08:34:44.437Z,36.00
2017-07-26T08:37:16.455Z,36.10
2017-07-26T08:39:47.683Z,36.10
2017-07-26T08:42:18.683Z,36.10
2017-07-26T08:44:58.217Z,36.10
2017-07-26T08:47:35.454Z,36.10
2017-07-26T08:50:11.313Z,36.10
2017-07-26T08:52:50.076Z,36.20
2017-07-26T08:55:21.205Z,36.20
2017-07-26T08:57:52.306Z,36.20
2017-07-26T09:00:23.349Z,36.10
2017-07-26T09:02:54.631Z,35.90
2017-07-26T09:05:25.877Z,35.70
2017-07-26T09:07:57.729Z,35.60
2017-07-26T09:10:28.948Z,35.40
2017-07-26T09:12:59.907Z,35.30
2017-07-26T09:15:30.789Z,35.20
2017-07-26T09:18:01.817Z,35.20
2017-07-26T09:20:33.337Z,35.10
2017-07-26T09:23:04.524Z,35.20
2017-07-26T09:25:35.845Z,35.10
2017-07-26T09:28:07.976Z,35.20
2017-07-26T09:30:43.770Z,35.10
2017-07-26T09:33:20.865Z,35.00
2017-07-26T09:35:52.204Z,35.00
2017-07-26T09:38:28.067Z,35.00
2017-07-26T09:41:01.052Z,34.90
2017-07-26T09:43:32.375Z,34.90
2017-07-26T09:46:03.441Z,34.80
2017-07-26T09:48:34.489Z,34.70
2017-07-26T09:51:05.333Z,34.70
2017-07-26T09:53:41.767Z,34.60
2017-07-26T09:56:17.682Z,34.60
2017-07-26T09:58:54.935Z,34.50
2017-07-26T10:01:32.297Z,34.50
2017-07-26T10:04:08.939Z,34.30
2017-07-26T10:09:27.227Z,34.10
2017-07-26T10:12:04.816Z,34.10
2017-07-26T10:14:36.018Z,34.00
2017-07-26T10:17:07.158Z,34.10
2017-07-26T10:19:38.223Z,34.00
2017-07-26T10:22:10.047Z,34.10
2017-07-26T10:24:41.014Z,34.00
2017-07-26T10:27:12.082Z,33.90
2017-07-26T10:29:44.746Z,33.70
2017-07-26T10:32:15.618Z,33.70
2017-07-26T10:34:46.809Z,33.50
2017-07-26T10:37:17.858Z,33.40
2017-07-26T10:39:49.109Z,33.20
2017-07-26T10:42:20.214Z,33.10
2017-07-26T10:44:52.132Z,32.90
2017-07-26T10:47:23.327Z,32.90
2017-07-26T10:49:55.456Z,32.80
2017-07-26T10:52:26.524Z,32.90
2017-07-26T10:54:57.569Z,33.00
2017-07-26T10:57:36.958Z,33.30
2017-07-26T11:00:18.624Z,33.40
2017-07-26T11:02:53.945Z,33.30
2017-07-26T11:05:37.099Z,33.40
2017-07-26T11:08:08.060Z,33.40
2017-07-26T11:10:39.324Z,33.50
2017-07-26T11:13:17.070Z,33.60
2017-07-26T11:15:51.234Z,33.70
2017-07-26T11:18:27.864Z,33.70
2017-07-26T11:21:09.174Z,33.70
2017-07-26T11:23:46.998Z,33.70
2017-07-26T11:26:25.683Z,33.50
2017-07-26T11:29:00.324Z,33.50
2017-07-26T11:31:37.820Z,33.50
2017-07-26T11:34:11.934Z,33.50
2017-07-26T11:36:46.369Z,33.40
2017-07-26T11:39:17.762Z,33.40
2017-07-26T11:41:49.063Z,33.30
2017-07-26T11:44:20.197Z,33.20
2017-07-26T11:46:51.164Z,33.20
2017-07-26T11:49:22.234Z,33.20
2017-07-26T11:51:53.468Z,33.00
2017-07-26T11:54:24.585Z,32.90
2017-07-26T11:56:55.741Z,32.80
2017-07-26T11:59:26.854Z,32.80
2017-07-26T12:06:24.286Z,32.30
2017-07-26T12:08:55.641Z,32.10
2017-07-26T12:11:26.889Z,31.80
2017-07-26T12:13:57.983Z,31.50
2017-07-26T12:16:35.731Z,31.30
2017-07-26T12:19:16.456Z,31.20
2017-07-26T12:21:53.894Z,31.10
2017-07-26T12:24:38.062Z,31.00
2017-07-26T12:27:16.387Z,31.00
2017-07-26T12:32:45.966Z,30.80
2017-07-26T12:35:18.287Z,30.60
2017-07-26T12:37:49.275Z,30.60
2017-07-26T12:40:20.521Z,30.50
2017-07-26T12:42:57.759Z,30.40
2017-07-26T12:45:29.786Z,30.30
2017-07-26T12:48:02.180Z,30.30
2017-07-26T12:50:33.363Z,30.20
2017-07-26T12:53:05.431Z,30.10
2017-07-26T12:55:37.325Z,30.00
2017-07-26T12:58:11.000Z,30.00
2017-07-26T13:00:42.429Z,30.00
2017-07-26T13:03:13.447Z,30.00
2017-07-26T13:05:44.575Z,30.00
2017-07-26T13:08:15.674Z,30.00
2017-07-26T13:10:47.738Z,29.90
2017-07-26T13:13:20.020Z,29.90
2017-07-26T13:15:51.716Z,29.90
2017-07-26T13:18:22.865Z,29.90
2017-07-26T13:20:53.737Z,29.90
2017-07-26T13:23:24.955Z,29.90
2017-07-26T13:25:56.927Z,29.80
2017-07-26T13:28:28.038Z,29.70
2017-07-26T13:30:59.202Z,29.60
2017-07-26T13:33:30.955Z,29.60
2017-07-26T13:36:02.231Z,29.50
2017-07-26T13:38:41.072Z,29.50
2017-07-26T13:41:13.115Z,29.50
2017-07-26T13:43:50.070Z,29.40
2017-07-26T13:46:23.178Z,29.40
2017-07-26T13:48:59.045Z,29.40
2017-07-26T13:51:35.601Z,29.40
2017-07-26T13:54:13.710Z,29.40
2017-07-26T13:56:47.018Z,29.30
2017-07-26T13:59:18.960Z,29.30
2017-07-26T14:01:50.219Z,29.30
2017-07-26T14:04:21.366Z,29.30
2017-07-26T14:06:52.373Z,29.30
2017-07-26T14:09:23.519Z,29.10
2017-07-26T14:12:03.581Z,28.90
2017-07-26T14:14:41.750Z,28.90
2017-07-26T14:17:20.400Z,28.80
2017-07-26T14:19:51.921Z,28.70
2017-07-26T14:22:28.880Z,28.70
2017-07-26T14:25:06.507Z,28.60
2017-07-26T14:27:43.077Z,28.60
2017-07-26T14:30:20.931Z,28.70
2017-07-26T14:32:52.501Z,28.60
2017-07-26T14:35:24.061Z,28.60
2017-07-26T14:37:55.871Z,28.60
2017-07-26T14:40:26.861Z,28.60
2017-07-26T14:42:58.012Z,28.60
2017-07-26T14:45:30.415Z,28.60
2017-07-26T14:48:09.226Z,28.60
2017-07-26T14:50:50.157Z,28.60
2017-07-26T14:53:26.932Z,28.60
2017-07-26T14:56:01.263Z,28.60
2017-07-26T14:58:31.648Z,28.60
2017-07-26T15:01:02.093Z,28.50
2017-07-26T15:03:39.268Z,28.50
2017-07-26T15:06:10.174Z,28.50
2017-07-26T15:08:50.803Z,28.40
2017-07-26T15:11:21.986Z,28.40
2017-07-26T15:13:52.854Z,28.30
2017-07-26T15:16:23.204Z,28.30
2017-07-26T15:21:35.672Z,28.20
2017-07-26T15:24:07.146Z,28.10
2017-07-26T15:26:42.494Z,28.10
2017-07-26T15:29:18.061Z,28.10
2017-07-26T15:31:51.530Z,28.10
2017-07-26T15:34:30.563Z,28.10
2017-07-26T15:37:02.225Z,28.10
2017-07-26T15:39:33.898Z,28.20
2017-07-26T15:42:08.842Z,28.40
2017-07-26T15:44:45.321Z,28.60
2017-07-26T15:47:18.215Z,28.90
2017-07-26T15:49:56.704Z,28.90
2017-07-26T15:55:14.765Z,29.10
2017-07-26T15:57:50.364Z,29.20
2017-07-26T16:00:27.386Z,29.30
2017-07-26T16:02:58.469Z,29.30
2017-07-26T16:05:33.396Z,29.30
2017-07-26T16:08:04.499Z,29.20
2017-07-26T16:10:34.946Z,29.30
2017-07-26T16:13:05.393Z,29.20
2017-07-26T16:15:36.794Z,29.10
2017-07-26T16:18:07.218Z,29.10
2017-07-26T16:20:37.480Z,29.00
2017-07-26T16:23:08.069Z,29.00
2017-07-26T16:25:39.089Z,29.10
2017-07-26T16:28:11.361Z,29.10
2017-07-26T16:30:42.068Z,29.10
2017-07-26T16:33:23.315Z,29.00
2017-07-26T16:35:55.433Z,28.70
2017-07-26T16:38:29.715Z,28.70
2017-07-26T16:41:02.749Z,28.50
2017-07-26T16:43:33.614Z,28.50
2017-07-26T16:46:04.255Z,28.50
2017-07-26T16:48:35.185Z,28.50
2017-07-26T16:51:05.958Z,28.60
2017-07-26T16:53:36.727Z,28.70
2017-07-26T16:56:07.226Z,28.80
2017-07-26T16:58:37.415Z,28.70
2017-07-26T17:01:08.096Z,28.60
2017-07-26T17:03:38.835Z,28.50
2017-07-26T17:06:10.258Z,28.30
2017-07-26T17:08:40.532Z,28.30
2017-07-26T17:11:13.799Z,28.30
2017-07-26T17:13:50.275Z,28.30
2017-07-26T17:16:26.657Z,28.40
2017-07-26T17:19:05.165Z,28.60
2017-07-26T17:21:44.300Z,28.60
2017-07-26T17:24:15.111Z,28.60
2017-07-26T17:26:45.422Z,28.50
2017-07-26T17:29:16.051Z,28.50
2017-07-26T17:31:46.777Z,28.50
2017-07-26T17:34:17.490Z,28.40
2017-07-26T17:36:48.152Z,28.40
2017-07-26T17:39:18.857Z,28.50
2017-07-26T17:41:49.978Z,28.40
2017-07-26T17:44:20.421Z,28.40
2017-07-26T17:46:52.070Z,28.50
2017-07-26T17:49:30.977Z,28.50
2017-07-26T17:52:13.766Z,28.50
2017-07-26T17:54:53.003Z,28.60
2017-07-26T17:57:26.335Z,28.40
2017-07-26T17:59:57.018Z,28.20
2017-07-26T18:02:27.450Z,28.10
2017-07-26T18:04:59.017Z,28.10
2017-07-26T18:07:29.558Z,28.00
2017-07-26T18:10:00.057Z,28.10
2017-07-26T18:12:30.684Z,28.20
2017-07-26T18:15:01.230Z,28.20
2017-07-26T18:17:35.862Z,28.10
2017-07-26T18:20:30.375Z,28.20
2017-07-26T18:23:13.346Z,28.10
2017-07-26T18:25:55.123Z,28.10
2017-07-26T18:28:39.404Z,28.00
2017-07-26T18:31:29.923Z,28.10
2017-07-26T18:34:10.273Z,28.30
2017-07-26T18:39:33.418Z,28.10
2017-07-26T18:42:12.138Z,28.10
2017-07-26T18:44:49.263Z,28.00
2017-07-26T18:47:25.204Z,28.00
2017-07-26T18:49:59.648Z,27.90
2017-07-26T18:52:30.143Z,27.80
2017-07-26T18:55:01.469Z,27.80
2017-07-26T18:57:34.363Z,27.80
2017-07-26T19:00:05.870Z,27.80
2017-07-26T19:02:36.477Z,27.80
2017-07-26T19:05:07.712Z,27.70
2017-07-26T19:07:38.148Z,27.70
2017-07-26T19:10:10.671Z,27.80
2017-07-26T19:12:41.362Z,27.80
2017-07-26T19:15:12.746Z,27.70
2017-07-26T19:17:47.588Z,27.70
2017-07-26T19:20:24.039Z,27.80
2017-07-26T19:23:03.578Z,28.00
2017-07-26T19:25:41.404Z,28.10
2017-07-26T19:28:16.061Z,28.10
2017-07-26T19:30:51.434Z,27.90
2017-07-26T19:33:28.387Z,27.90
2017-07-26T19:36:02.308Z,27.90
2017-07-26T19:38:32.884Z,27.90
2017-07-26T19:41:03.532Z,28.00
2017-07-26T19:43:38.145Z,28.00
2017-07-26T19:46:15.945Z,28.10
2017-07-26T19:48:53.110Z,28.00
2017-07-26T19:51:28.304Z,28.10
2017-07-26T19:53:59.659Z,28.10
2017-07-26T19:56:30.602Z,28.00
2017-07-26T19:59:06.416Z,28.00
2017-07-26T20:01:41.231Z,28.10
2017-07-26T20:04:18.347Z,28.00
2017-07-26T20:06:56.599Z,28.00
2017-07-26T20:09:28.064Z,28.00
2017-07-26T20:12:07.071Z,27.80
2017-07-26T20:14:44.292Z,27.80
2017-07-26T20:17:20.522Z,27.80
2017-07-26T20:19:57.831Z,27.80
2017-07-26T20:22:28.784Z,27.70
2017-07-26T20:25:00.157Z,27.80
2017-07-26T20:27:30.800Z,27.70
2017-07-26T20:30:01.428Z,27.80
2017-07-26T20:32:31.963Z,27.70
2017-07-26T20:35:02.353Z,27.70
2017-07-26T20:37:37.080Z,27.80
2017-07-26T20:40:13.687Z,27.80
2017-07-26T20:42:49.936Z,27.70
2017-07-26T20:45:26.535Z,27.80
2017-07-26T20:47:57.705Z,27.80
2017-07-26T20:50:28.477Z,27.80
2017-07-26T20:52:59.085Z,27.80
2017-07-26T20:55:29.679Z,27.80
2017-07-26T20:57:59.919Z,27.80
2017-07-26T21:00:30.709Z,27.80
2017-07-26T21:03:01.824Z,27.90
2017-07-26T21:05:32.277Z,27.90
2017-07-26T21:08:02.809Z,27.80
2017-07-26T21:10:41.591Z,27.90
2017-07-26T21:13:16.747Z,27.90
2017-07-26T21:15:51.740Z,28.00
2017-07-26T21:18:26.817Z,27.90
2017-07-26T21:20:57.306Z,28.00
2017-07-26T21:23:27.599Z,28.00
2017-07-26T21:25:58.246Z,28.00
2017-07-26T21:28:28.676Z,28.00
2017-07-26T21:30:59.333Z,28.10
2017-07-26T21:33:30.651Z,28.00
2017-07-26T21:36:00.904Z,28.00
2017-07-26T21:38:31.277Z,27.90
2017-07-26T21:41:01.672Z,28.00
2017-07-26T21:43:35.128Z,27.90
2017-07-26T21:46:09.772Z,27.80
2017-07-26T21:48:46.709Z,27.80
2017-07-26T21:51:21.824Z,27.80
2017-07-26T21:53:56.521Z,27.80
2017-07-26T21:56:34.518Z,27.70
2017-07-26T21:59:06.167Z,27.80
2017-07-26T22:01:37.587Z,27.70
2017-07-26T22:04:08.147Z,27.70
2017-07-26T22:06:38.401Z,27.80
2017-07-26T22:09:08.929Z,27.80
2017-07-26T22:11:39.032Z,27.80
2017-07-26T22:14:10.338Z,28.10
2017-07-26T22:16:40.593Z,28.00
2017-07-26T22:19:19.739Z,28.20
2017-07-26T22:21:57.069Z,28.30
2017-07-26T22:24:34.666Z,28.30
2017-07-26T22:27:10.373Z,28.40
2017-07-26T22:29:41.690Z,28.40
2017-07-26T22:32:12.284Z,28.40
2017-07-26T22:34:45.434Z,28.50
2017-07-26T22:40:11.680Z,28.40
2017-07-26T22:42:51.767Z,28.40
2017-07-26T22:45:29.756Z,28.40
2017-07-26T22:48:00.520Z,28.40
2017-07-26T22:50:31.427Z,28.40
2017-07-26T22:53:02.785Z,28.50
2017-07-26T22:55:38.124Z,28.50
2017-07-26T22:58:13.316Z,28.40
2017-07-26T23:00:51.751Z,28.40
2017-07-26T23:03:27.894Z,28.40
2017-07-26T23:05:58.491Z,28.40
2017-07-26T23:08:35.639Z,28.30
2017-07-26T23:11:15.082Z,28.40
2017-07-26T23:13:52.054Z,28.40
2017-07-26T23:16:27.529Z,28.50
2017-07-26T23:19:06.056Z,28.80
2017-07-26T23:21:46.131Z,28.90
2017-07-26T23:24:19.691Z,28.80
2017-07-26T23:26:51.944Z,28.90
2017-07-26T23:29:22.230Z,29.00
2017-07-26T23:31:52.604Z,29.00
2017-07-26T23:34:23.156Z,29.00
2017-07-26T23:36:53.560Z,29.10
2017-07-26T23:39:24.154Z,29.10
2017-07-26T23:41:54.785Z,29.10
2017-07-26T23:44:25.524Z,29.10
2017-07-26T23:46:55.711Z,29.30
2017-07-26T23:49:27.055Z,29.50
2017-07-26T23:51:57.390Z,29.50
2017-07-26T23:54:28.647Z,29.40
2017-07-26T23:56:59.743Z,29.40
2017-07-26T23:59:36.707Z,29.40
